createdAt,value
2023-03-29T00:01:35.014Z,51.97
2023-03-29T00:05:02.107Z,51.62
2023-03-29T00:08:24.308Z,51.64
2023-03-29T00:11:46.542Z,52.76
2023-03-29T00:15:09.164Z,52.46
2023-03-29T00:18:30.713Z,54.32
2023-03-29T00:21:52.460Z,52.82
2023-03-29T00:25:14.150Z,53.80
2023-03-29T00:28:35.854Z,54.19
2023-03-29T00:31:57.569Z,54.21
2023-03-29T00:35:19.766Z,52.93
2023-03-29T00:38:42.002Z,53.54
2023-03-29T00:42:10.551Z,52.94
2023-03-29T00:45:33.972Z,52.06
2023-03-29T00:49:16.247Z,51.38
2023-03-29T00:52:40.817Z,52.21
2023-03-29T00:56:37.107Z,52.60
2023-03-29T01:00:00.016Z,52.93
2023-03-29T01:03:28.197Z,52.25
2023-03-29T01:06:57.165Z,52.77
2023-03-29T01:10:26.342Z,52.71
2023-03-29T01:13:57.319Z,52.68
2023-03-29T01:17:21.986Z,53.52
2023-03-29T01:20:53.860Z,52.67
2023-03-29T01:24:33.221Z,53.10
2023-03-29T01:28:06.393Z,53.43
2023-03-29T01:31:32.562Z,53.72
2023-03-29T01:35:02.587Z,54.66
2023-03-29T01:38:32.226Z,53.66
2023-03-29T01:42:18.157Z,54.78
2023-03-29T01:46:00.005Z,54.38
2023-03-29T01:49:38.134Z,54.65
2023-03-29T01:53:12.710Z,55.85
2023-03-29T01:56:38.920Z,56.61
2023-03-29T02:00:08.223Z,56.07
2023-03-29T02:03:42.373Z,56.71
2023-03-29T02:07:07.672Z,57.27
2023-03-29T02:10:30.241Z,57.92
2023-03-29T02:13:51.921Z,58.98
2023-03-29T02:17:27.161Z,58.61
2023-03-29T02:20:52.857Z,57.74
2023-03-29T02:24:22.814Z,58.77
2023-03-29T02:27:45.256Z,59.57
2023-03-29T02:31:24.216Z,60.17
2023-03-29T02:35:01.935Z,60.32
2023-03-29T02:38:25.607Z,60.98
2023-03-29T02:41:50.464Z,59.63
2023-03-29T02:45:20.312Z,59.15
2023-03-29T02:48:48.476Z,58.50
2023-03-29T02:52:14.413Z,58.49
2023-03-29T02:55:36.218Z,59.32
2023-03-29T02:58:57.783Z,59.33
2023-03-29T03:02:21.952Z,59.03
2023-03-29T03:05:46.260Z,59.36
2023-03-29T03:09:10.619Z,58.86
2023-03-29T03:12:32.207Z,59.31
2023-03-29T03:15:56.212Z,60.07
2023-03-29T03:19:17.821Z,59.25
2023-03-29T03:22:48.952Z,59.31
2023-03-29T03:26:10.809Z,59.00
2023-03-29T03:29:32.505Z,58.60
2023-03-29T03:32:54.962Z,58.08
2023-03-29T03:36:16.765Z,58.52
2023-03-29T03:39:38.400Z,59.40
2023-03-29T03:43:02.507Z,59.58
2023-03-29T03:46:24.129Z,60.87
2023-03-29T03:49:48.523Z,60.45
2023-03-29T03:53:15.059Z,60.41
2023-03-29T03:56:37.435Z,60.33
2023-03-29T03:59:59.116Z,60.62
2023-03-29T04:03:24.137Z,60.77
2023-03-29T04:06:48.111Z,60.62
2023-03-29T04:10:11.247Z,60.91
2023-03-29T04:13:32.807Z,60.14
2023-03-29T04:16:54.808Z,60.09
2023-03-29T04:20:18.788Z,61.30
2023-03-29T04:23:43.241Z,61.52
2023-03-29T04:27:09.391Z,62.60
2023-03-29T04:30:31.172Z,62.02
2023-03-29T04:33:52.834Z,62.92
2023-03-29T04:37:22.041Z,62.59
2023-03-29T04:40:44.313Z,63.85
2023-03-29T04:44:06.996Z,64.73
2023-03-29T04:47:29.770Z,64.09
2023-03-29T04:50:52.633Z,63.29
2023-03-29T04:54:14.238Z,62.15
2023-03-29T04:57:38.083Z,63.89
2023-03-29T05:01:02.669Z,64.63
2023-03-29T05:04:28.532Z,63.18
2023-03-29T05:07:52.956Z,61.43
2023-03-29T05:11:17.595Z,60.29
2023-03-29T05:14:41.662Z,60.02
2023-03-29T05:18:03.703Z,61.14
2023-03-29T05:21:28.550Z,60.85
2023-03-29T05:24:51.634Z,61.82
2023-03-29T05:28:13.547Z,61.37
2023-03-29T05:31:38.852Z,61.25
2023-03-29T05:35:02.836Z,60.67
2023-03-29T05:38:27.008Z,60.65
2023-03-29T05:41:51.413Z,60.20
2023-03-29T05:45:13.186Z,59.99
2023-03-29T05:48:34.885Z,59.77
2023-03-29T05:51:57.265Z,58.57
2023-03-29T05:55:21.062Z,57.86
2023-03-29T05:58:46.675Z,56.66
2023-03-29T06:02:11.224Z,56.97
2023-03-29T06:05:32.883Z,56.59
2023-03-29T06:08:56.988Z,56.82
2023-03-29T06:12:20.438Z,58.05
2023-03-29T06:15:42.215Z,56.99
2023-03-29T06:19:06.812Z,56.76
2023-03-29T06:22:28.513Z,56.92
2023-03-29T06:25:53.367Z,55.41
2023-03-29T06:29:15.696Z,54.67
2023-03-29T06:32:37.605Z,53.59
2023-03-29T06:35:59.398Z,52.52
2023-03-29T06:39:26.002Z,52.11
2023-03-29T06:42:48.246Z,51.70
2023-03-29T06:46:12.341Z,52.20
2023-03-29T06:49:34.175Z,52.66
2023-03-29T06:52:58.860Z,51.29
2023-03-29T06:56:23.837Z,52.34
2023-03-29T06:59:47.926Z,52.37
2023-03-29T07:03:13.362Z,49.81
2023-03-29T07:06:36.738Z,48.82
2023-03-29T07:09:58.318Z,48.15
2023-03-29T07:13:22.546Z,46.73
2023-03-29T07:16:47.464Z,46.24
2023-03-29T07:20:13.922Z,47.38
2023-03-29T07:23:36.074Z,46.61
2023-03-29T07:27:04.464Z,47.03
2023-03-29T07:30:30.970Z,45.62
2023-03-29T07:33:53.665Z,44.53
2023-03-29T07:37:15.300Z,44.96
2023-03-29T07:40:39.678Z,43.73
2023-03-29T07:44:06.739Z,42.95
2023-03-29T07:47:31.065Z,43.26
2023-03-29T07:50:52.673Z,42.07
2023-03-29T07:54:17.369Z,41.12
2023-03-29T07:57:39.284Z,40.57
2023-03-29T08:01:04.134Z,41.02
2023-03-29T08:04:28.334Z,39.95
2023-03-29T08:07:50.595Z,38.01
2023-03-29T08:11:12.270Z,37.87
2023-03-29T08:14:34.373Z,37.45
2023-03-29T08:17:58.479Z,39.71
2023-03-29T08:21:22.524Z,35.98
2023-03-29T08:24:44.138Z,36.96
2023-03-29T08:28:05.755Z,37.32
2023-03-29T08:31:28.225Z,37.69
2023-03-29T08:34:49.980Z,37.22
2023-03-29T08:38:14.325Z,35.58
2023-03-29T08:41:44.855Z,35.72
2023-03-29T08:45:19.709Z,36.33
2023-03-29T08:48:49.318Z,36.95
2023-03-29T08:52:41.288Z,35.72
2023-03-29T08:56:09.169Z,37.34
2023-03-29T08:59:33.175Z,37.08
2023-03-29T09:02:57.591Z,35.37
2023-03-29T09:06:22.188Z,33.34
2023-03-29T09:09:44.060Z,33.02
2023-03-29T09:13:30.477Z,32.35
2023-03-29T09:17:07.879Z,33.07
2023-03-29T09:20:53.993Z,32.13
2023-03-29T09:24:34.226Z,33.49
2023-03-29T09:28:06.335Z,33.00
2023-03-29T09:31:39.317Z,30.09
2023-03-29T09:35:21.362Z,31.16
2023-03-29T09:38:47.176Z,31.66
2023-03-29T09:42:12.020Z,31.58
2023-03-29T09:45:40.193Z,31.31
2023-03-29T09:49:10.391Z,31.70
2023-03-29T09:52:34.832Z,32.02
2023-03-29T09:55:56.709Z,31.43
2023-03-29T09:59:18.526Z,32.66
2023-03-29T10:02:43.371Z,33.66
2023-03-29T10:06:09.775Z,33.71
2023-03-29T10:09:32.657Z,33.90
2023-03-29T10:12:59.466Z,33.45
2023-03-29T10:16:24.142Z,32.82
2023-03-29T10:19:57.508Z,32.01
2023-03-29T10:23:19.096Z,30.96
2023-03-29T10:26:43.355Z,31.37
2023-03-29T10:30:13.023Z,32.91
2023-03-29T10:33:36.242Z,33.59
2023-03-29T10:36:59.798Z,31.95
2023-03-29T10:40:32.246Z,30.33
2023-03-29T10:43:54.602Z,29.40
2023-03-29T10:47:20.182Z,31.29
2023-03-29T10:50:42.849Z,31.06
2023-03-29T10:54:05.378Z,31.67
2023-03-29T10:57:32.450Z,30.33
2023-03-29T11:00:58.553Z,30.38
2023-03-29T11:04:48.087Z,30.57
2023-03-29T11:08:54.079Z,30.30
2023-03-29T11:12:28.524Z,30.19
2023-03-29T11:16:08.374Z,30.02
2023-03-29T11:20:05.828Z,29.99
2023-03-29T11:24:15.410Z,30.34
2023-03-29T11:27:36.967Z,31.64
2023-03-29T11:31:13.729Z,30.40
2023-03-29T11:34:53.984Z,30.38
2023-03-29T11:38:34.243Z,31.24
2023-03-29T11:42:06.798Z,31.47
2023-03-29T11:45:41.294Z,31.12
2023-03-29T11:49:22.949Z,30.18
2023-03-29T11:52:47.306Z,31.79
2023-03-29T11:56:16.961Z,31.15
2023-03-29T11:59:59.118Z,32.23
2023-03-29T12:03:59.174Z,31.28
2023-03-29T12:07:32.353Z,30.50
2023-03-29T12:10:59.231Z,29.58
2023-03-29T12:14:30.613Z,29.86
2023-03-29T12:18:05.897Z,29.33
2023-03-29T12:21:30.028Z,30.85
2023-03-29T12:24:54.042Z,30.98
2023-03-29T12:28:24.327Z,31.16
2023-03-29T12:32:10.207Z,31.21
2023-03-29T12:35:49.052Z,31.56
2023-03-29T12:39:20.347Z,32.02
2023-03-29T12:42:52.585Z,31.91
2023-03-29T12:46:20.197Z,33.85
2023-03-29T12:49:41.961Z,34.34
2023-03-29T12:53:13.642Z,45.01
2023-03-29T12:56:52.073Z,44.55
2023-03-29T13:00:26.525Z,36.82
2023-03-29T13:03:57.501Z,38.56
2023-03-29T13:07:22.297Z,35.51
2023-03-29T13:10:53.783Z,33.38
2023-03-29T13:14:20.310Z,34.21
2023-03-29T13:18:00.369Z,34.32
2023-03-29T13:21:30.688Z,34.77
2023-03-29T13:25:06.231Z,34.94
2023-03-29T13:29:01.059Z,35.40
2023-03-29T13:32:37.791Z,36.07
2023-03-29T13:36:15.560Z,36.10
2023-03-29T13:39:47.431Z,35.69
2023-03-29T13:43:19.161Z,35.46
2023-03-29T13:46:44.496Z,37.06
2023-03-29T13:50:42.366Z,38.29
2023-03-29T13:54:16.261Z,38.65
2023-03-29T13:57:43.761Z,38.83
2023-03-29T14:01:26.121Z,38.81
2023-03-29T14:04:51.299Z,38.03
2023-03-29T14:08:27.121Z,37.13
2023-03-29T14:11:51.644Z,37.13
2023-03-29T14:15:23.862Z,37.15
2023-03-29T14:18:51.261Z,37.92
2023-03-29T14:22:19.197Z,37.74
2023-03-29T14:25:40.841Z,38.21
2023-03-29T14:29:03.295Z,36.96
2023-03-29T14:32:30.479Z,37.95
2023-03-29T14:35:52.866Z,37.74
2023-03-29T14:39:14.872Z,38.49
2023-03-29T14:42:38.265Z,38.75
2023-03-29T14:46:04.648Z,39.37
2023-03-29T14:49:26.751Z,39.38
2023-03-29T14:52:52.264Z,40.19
2023-03-29T14:56:21.305Z,41.29
2023-03-29T14:59:54.183Z,41.05
2023-03-29T15:03:19.037Z,41.60
2023-03-29T15:06:46.876Z,41.90
2023-03-29T15:10:09.039Z,42.74
2023-03-29T15:13:33.227Z,42.35
2023-03-29T15:17:03.225Z,42.57
2023-03-29T15:20:27.551Z,41.32
2023-03-29T15:23:59.147Z,41.91
2023-03-29T15:27:21.094Z,41.99
2023-03-29T15:30:54.179Z,42.49
2023-03-29T15:34:30.472Z,41.70
2023-03-29T15:37:53.487Z,42.85
2023-03-29T15:41:16.145Z,42.04
2023-03-29T15:44:41.260Z,41.48
2023-03-29T15:48:14.129Z,41.49
2023-03-29T15:51:36.029Z,41.72
2023-03-29T15:54:57.626Z,40.73
2023-03-29T15:58:26.234Z,40.82
2023-03-29T16:01:48.122Z,41.52
2023-03-29T16:05:10.928Z,41.58
2023-03-29T16:08:32.600Z,41.64
2023-03-29T16:11:54.294Z,42.41
2023-03-29T16:15:22.096Z,42.41
2023-03-29T16:18:46.586Z,42.34
2023-03-29T16:22:10.571Z,42.57
2023-03-29T16:25:32.353Z,42.75
2023-03-29T16:28:53.940Z,43.15
2023-03-29T16:32:16.720Z,42.97
2023-03-29T16:35:42.749Z,43.25
2023-03-29T16:39:05.829Z,43.60
2023-03-29T16:42:27.493Z,43.16
2023-03-29T16:45:51.583Z,44.33
2023-03-29T16:49:18.272Z,44.63
2023-03-29T16:52:42.761Z,42.86
2023-03-29T16:56:04.898Z,43.26
2023-03-29T16:59:27.289Z,44.54
2023-03-29T17:02:52.807Z,44.70
2023-03-29T17:06:16.883Z,44.85
2023-03-29T17:09:38.598Z,44.47
2023-03-29T17:13:01.547Z,44.93
2023-03-29T17:16:23.260Z,45.19
2023-03-29T17:19:47.297Z,45.56
2023-03-29T17:23:09.093Z,45.56
2023-03-29T17:26:33.166Z,45.45
2023-03-29T17:29:57.210Z,45.84
2023-03-29T17:33:22.830Z,46.46
2023-03-29T17:36:45.789Z,45.98
2023-03-29T17:40:14.030Z,46.18
2023-03-29T17:43:35.738Z,47.02
2023-03-29T17:46:59.581Z,48.09
2023-03-29T17:50:21.653Z,48.34
2023-03-29T17:53:43.503Z,49.31
2023-03-29T17:57:07.754Z,50.09
2023-03-29T18:00:29.513Z,50.26
2023-03-29T18:03:53.660Z,50.50
2023-03-29T18:07:17.895Z,50.58
2023-03-29T18:10:39.929Z,50.87
2023-03-29T18:14:05.294Z,59.06
2023-03-29T18:17:27.683Z,57.17
2023-03-29T18:20:51.917Z,58.63
2023-03-29T18:24:15.845Z,55.57
2023-03-29T18:27:40.469Z,56.19
2023-03-29T18:31:02.162Z,49.67
2023-03-29T18:34:26.355Z,50.10
2023-03-29T18:37:47.937Z,50.73
2023-03-29T18:41:13.038Z,51.19
2023-03-29T18:44:40.263Z,51.43
2023-03-29T18:48:02.169Z,52.37
2023-03-29T18:51:25.802Z,52.79
2023-03-29T18:54:47.416Z,52.98
2023-03-29T18:58:13.514Z,53.08
2023-03-29T19:01:40.716Z,53.38
2023-03-29T19:05:02.529Z,53.31
2023-03-29T19:08:26.287Z,53.01
2023-03-29T19:11:48.098Z,52.90
2023-03-29T19:15:13.812Z,53.90
2023-03-29T19:18:38.142Z,54.02
2023-03-29T19:22:00.677Z,54.00
2023-03-29T19:25:22.598Z,55.03
2023-03-29T19:28:49.066Z,54.36
2023-03-29T19:32:11.000Z,54.37
2023-03-29T19:35:32.625Z,54.61
2023-03-29T19:38:54.240Z,63.87
2023-03-29T19:42:16.152Z,62.46
2023-03-29T19:45:37.738Z,60.58
2023-03-29T19:49:04.438Z,61.60
2023-03-29T19:52:28.439Z,59.91
2023-03-29T19:55:52.448Z,60.04
2023-03-29T19:59:15.154Z,51.99
2023-03-29T20:02:39.542Z,53.13
2023-03-29T20:06:01.297Z,53.92
2023-03-29T20:09:25.163Z,54.65
2023-03-29T20:12:47.861Z,54.77
2023-03-29T20:16:14.843Z,54.80
2023-03-29T20:19:36.779Z,55.11
2023-03-29T20:23:04.553Z,55.19
2023-03-29T20:26:28.063Z,55.83
2023-03-29T20:29:49.698Z,56.10
2023-03-29T20:33:11.355Z,57.27
2023-03-29T20:36:33.165Z,56.91
2023-03-29T20:39:56.822Z,56.82
2023-03-29T20:43:19.138Z,58.62
2023-03-29T20:46:46.161Z,57.68
2023-03-29T20:50:10.639Z,57.52
2023-03-29T20:53:34.295Z,57.41
2023-03-29T20:56:58.274Z,57.46
2023-03-29T21:00:20.617Z,66.04
2023-03-29T21:03:47.278Z,63.06
2023-03-29T21:07:11.967Z,61.45
2023-03-29T21:10:33.690Z,62.47
2023-03-29T21:13:55.257Z,54.86
2023-03-29T21:17:16.883Z,55.01
2023-03-29T21:20:38.463Z,55.76
2023-03-29T21:24:00.347Z,56.42
2023-03-29T21:27:21.897Z,56.88
2023-03-29T21:30:45.847Z,56.82
2023-03-29T21:34:09.801Z,56.86
2023-03-29T21:37:36.204Z,57.23
2023-03-29T21:41:00.668Z,57.40
2023-03-29T21:44:27.053Z,57.29
2023-03-29T21:47:51.219Z,57.11
2023-03-29T21:51:17.624Z,57.88
2023-03-29T21:54:44.002Z,58.08
2023-03-29T21:58:07.677Z,58.17
2023-03-29T22:01:29.356Z,57.97
2023-03-29T22:04:51.254Z,57.94
2023-03-29T22:08:12.823Z,57.32
2023-03-29T22:11:34.812Z,57.64
2023-03-29T22:14:56.442Z,58.36
2023-03-29T22:18:20.901Z,58.23
2023-03-29T22:21:44.707Z,58.18
2023-03-29T22:25:07.851Z,58.39
2023-03-29T22:28:29.479Z,59.35
2023-03-29T22:31:53.443Z,59.51
2023-03-29T22:35:15.151Z,59.51
2023-03-29T22:38:39.003Z,59.35
2023-03-29T22:42:00.592Z,59.79
2023-03-29T22:45:22.434Z,61.02
2023-03-29T22:48:44.078Z,61.40
2023-03-29T22:52:05.869Z,62.35
2023-03-29T22:55:27.438Z,61.99
2023-03-29T22:58:49.103Z,62.47
2023-03-29T23:02:10.694Z,62.08
2023-03-29T23:05:37.326Z,61.98
2023-03-29T23:09:01.661Z,61.68
2023-03-29T23:12:24.242Z,62.17
2023-03-29T23:15:48.387Z,62.35
2023-03-29T23:19:10.585Z,63.13
2023-03-29T23:22:37.680Z,63.15
2023-03-29T23:25:59.702Z,64.01
2023-03-29T23:29:21.272Z,63.83
2023-03-29T23:32:42.906Z,64.76
2023-03-29T23:36:09.990Z,64.85
2023-03-29T23:39:31.659Z,64.94
2023-03-29T23:42:59.466Z,65.08
2023-03-29T23:46:24.113Z,64.94
2023-03-29T23:49:45.759Z,65.01
2023-03-29T23:53:07.376Z,64.04
2023-03-29T23:56:29.110Z,64.65
2023-03-29T23:59:52.803Z,64.73
